createdAt,value
2017-02-04T00:01:14.882Z,992.67
2017-02-04T00:02:29.955Z,992.67
2017-02-04T00:03:45.933Z,992.7
2017-02-04T00:05:00.354Z,992.69
2017-02-04T00:06:15.375Z,992.72
2017-02-04T00:07:30.262Z,992.72
2017-02-04T00:08:45.341Z,992.69
2017-02-04T00:10:00.134Z,992.66
2017-02-04T00:11:15.769Z,992.65
2017-02-04T00:12:30.288Z,992.67
2017-02-04T00:13:44.941Z,992.64
2017-02-04T00:14:59.459Z,992.58
2017-02-04T00:16:13.923Z,992.64
2017-02-04T00:17:28.370Z,992.6
2017-02-04T00:18:43.461Z,992.6
2017-02-04T00:19:57.472Z,992.59
2017-02-04T00:21:12.046Z,992.55
2017-02-04T00:22:26.295Z,992.57
2017-02-04T00:23:40.945Z,992.55
2017-02-04T00:24:55.434Z,992.51
2017-02-04T00:26:10.520Z,992.54
2017-02-04T00:27:24.475Z,992.5
2017-02-04T00:28:38.881Z,992.54
2017-02-04T00:29:53.342Z,992.53
2017-02-04T00:31:07.499Z,992.48
2017-02-04T00:32:22.046Z,992.51
2017-02-04T00:33:37.582Z,992.48
2017-02-04T00:34:53.319Z,992.54
2017-02-04T00:36:08.044Z,992.52
2017-02-04T00:37:23.146Z,992.46
2017-02-04T00:38:38.017Z,992.54
2017-02-04T00:39:52.154Z,992.53
2017-02-04T00:41:06.382Z,992.55
2017-02-04T00:42:20.531Z,992.54
2017-02-04T00:43:34.501Z,992.54
2017-02-04T00:44:48.675Z,992.54
2017-02-04T00:46:03.146Z,992.54
2017-02-04T00:47:18.003Z,992.59
2017-02-04T00:48:32.409Z,992.56
2017-02-04T00:49:47.880Z,992.53
2017-02-04T00:51:01.882Z,992.55
2017-02-04T00:52:16.521Z,992.59
2017-02-04T00:53:31.407Z,992.5
2017-02-04T00:54:45.542Z,992.59
2017-02-04T00:56:00.042Z,992.55
2017-02-04T00:57:14.658Z,992.6
2017-02-04T00:58:29.571Z,992.62
2017-02-04T00:59:44.521Z,992.63
2017-02-04T01:03:43.811Z,992.64
2017-02-04T01:05:21.248Z,992.67
2017-02-04T01:06:35.099Z,992.71
2017-02-04T01:08:04.025Z,992.67
2017-02-04T01:09:17.493Z,992.75
2017-02-04T01:10:32.305Z,992.8
2017-02-04T01:11:45.901Z,992.78
2017-02-04T01:12:59.604Z,992.82
2017-02-04T01:14:13.697Z,992.78
2017-02-04T01:15:27.832Z,992.79
2017-02-04T01:16:42.232Z,992.75
2017-02-04T01:17:55.858Z,992.8
2017-02-04T01:19:09.295Z,992.76
2017-02-04T01:20:23.284Z,992.75
2017-02-04T01:21:37.161Z,992.73
2017-02-04T01:22:51.485Z,992.75
2017-02-04T01:25:34.476Z,992.76
2017-02-04T01:26:48.209Z,992.76
2017-02-04T01:28:02.092Z,992.86
2017-02-04T01:29:15.522Z,992.81
2017-02-04T01:30:29.251Z,992.82
2017-02-04T01:31:42.733Z,992.9
2017-02-04T01:32:56.790Z,992.9
2017-02-04T01:34:40.686Z,992.88
2017-02-04T01:35:54.153Z,993.04
2017-02-04T01:37:08.045Z,993.02
2017-02-04T01:38:21.526Z,993.16
2017-02-04T01:39:35.744Z,993.31
2017-02-04T01:40:49.172Z,993.36
2017-02-04T01:42:03.171Z,993.43
2017-02-04T01:43:17.058Z,993.33
2017-02-04T01:44:30.783Z,993.26
2017-02-04T01:45:44.868Z,993.21
2017-02-04T01:47:08.651Z,993.28
2017-02-04T01:48:22.263Z,993.24
2017-02-04T01:49:36.147Z,993.27
2017-02-04T01:50:49.923Z,993.27
2017-02-04T01:52:03.429Z,993.26
2017-02-04T01:53:17.090Z,993.24
2017-02-04T01:54:30.923Z,993.24
2017-02-04T01:55:44.513Z,993.26
2017-02-04T01:56:57.946Z,993.25
2017-02-04T01:58:11.685Z,993.23
2017-02-04T01:59:25.723Z,993.32
2017-02-04T02:00:39.564Z,993.32
2017-02-04T02:01:53.099Z,993.28
2017-02-04T02:03:06.787Z,993.27
2017-02-04T02:04:20.313Z,993.28
2017-02-04T02:05:34.003Z,993.26
2017-02-04T02:06:47.967Z,993.32
2017-02-04T02:08:01.646Z,993.33
2017-02-04T02:09:15.124Z,993.32
2017-02-04T02:10:29.193Z,993.25
2017-02-04T02:11:43.190Z,993.31
2017-02-04T02:12:57.913Z,993.29
2017-02-04T02:14:11.765Z,993.29
2017-02-04T02:15:25.895Z,993.21
2017-02-04T02:16:39.535Z,993.23
2017-02-04T02:17:53.736Z,993.14
2017-02-04T02:19:07.171Z,993.24
2017-02-04T02:20:20.880Z,993.17
2017-02-04T02:21:34.671Z,993.21
2017-02-04T02:22:51.090Z,993.16
2017-02-04T02:24:04.972Z,993.1
2017-02-04T02:25:19.008Z,993.1
2017-02-04T02:26:32.569Z,993.15
2017-02-04T02:27:46.710Z,993.11
2017-02-04T02:29:01.024Z,993.14
2017-02-04T02:30:15.044Z,993.09
2017-02-04T02:31:28.584Z,993.03
2017-02-04T02:32:42.323Z,993
2017-02-04T02:33:56.008Z,992.94
2017-02-04T02:35:09.590Z,992.96
2017-02-04T02:36:23.025Z,992.96
2017-02-04T02:37:36.763Z,992.9
2017-02-04T02:38:50.269Z,992.91
2017-02-04T02:40:03.838Z,992.98
2017-02-04T02:41:18.036Z,992.93
2017-02-04T02:42:32.185Z,992.93
2017-02-04T02:43:45.938Z,992.9
2017-02-04T02:45:00.509Z,992.95
2017-02-04T02:46:14.001Z,992.92
2017-02-04T02:47:27.668Z,992.95
2017-02-04T02:48:41.164Z,992.98
2017-02-04T02:49:54.827Z,992.96
2017-02-04T02:51:08.698Z,992.96
2017-02-04T02:52:22.677Z,992.89
2017-02-04T02:53:36.497Z,992.92
2017-02-04T02:54:50.125Z,992.92
2017-02-04T02:56:04.082Z,993.03
2017-02-04T02:57:17.715Z,993.03
2017-02-04T02:58:31.231Z,993.06
2017-02-04T02:59:45.167Z,993.08
2017-02-04T03:00:58.695Z,993.15
2017-02-04T03:02:12.508Z,993.18
2017-02-04T03:03:25.936Z,993.16
2017-02-04T03:04:39.598Z,993.08
2017-02-04T03:05:53.143Z,993.12
2017-02-04T03:07:06.973Z,993.06
2017-02-04T03:08:20.789Z,993.05
2017-02-04T03:09:34.408Z,993.1
2017-02-04T03:10:47.834Z,993.06
2017-02-04T03:12:01.739Z,993.09
2017-02-04T03:13:15.256Z,993.08
2017-02-04T03:14:29.086Z,993.1
2017-02-04T03:15:42.984Z,993.06
2017-02-04T03:16:56.612Z,993.05
2017-02-04T03:18:10.301Z,993.06
2017-02-04T03:19:24.009Z,993.04
2017-02-04T03:20:37.703Z,993.03
2017-02-04T03:21:51.330Z,993.09
2017-02-04T03:23:04.861Z,993.08
2017-02-04T03:24:18.528Z,993.11
2017-02-04T03:25:32.062Z,993.12
2017-02-04T03:26:46.154Z,993.13
2017-02-04T03:27:59.625Z,993.15
2017-02-04T03:29:13.379Z,993.15
2017-02-04T03:30:27.038Z,993.15
2017-02-04T03:31:40.691Z,993.17
2017-02-04T03:32:54.723Z,993.19
2017-02-04T03:34:08.409Z,993.17
2017-02-04T03:35:21.896Z,993.11
2017-02-04T03:36:35.504Z,993.16
2017-02-04T03:37:48.946Z,993.16
2017-02-04T03:39:05.024Z,993.11
2017-02-04T03:40:18.878Z,993.1
2017-02-04T03:41:32.787Z,993.05
2017-02-04T03:42:46.266Z,992.99
2017-02-04T03:43:59.883Z,992.98
2017-02-04T03:45:13.390Z,993
2017-02-04T03:46:27.089Z,993.06
2017-02-04T03:47:40.851Z,993.01
2017-02-04T03:48:54.454Z,993.05
2017-02-04T03:50:07.867Z,993.02
2017-02-04T03:51:21.894Z,993
2017-02-04T03:52:35.508Z,993.04
2017-02-04T03:53:49.121Z,993.04
2017-02-04T03:55:02.593Z,993.05
2017-02-04T03:56:16.164Z,993.05
2017-02-04T03:57:29.732Z,993.03
2017-02-04T03:58:43.621Z,993.05
2017-02-04T03:59:57.298Z,992.94
2017-02-04T04:01:11.389Z,992.94
2017-02-04T04:02:25.256Z,992.94
2017-02-04T04:03:38.969Z,992.87
2017-02-04T04:04:52.411Z,992.87
2017-02-04T04:06:06.321Z,992.89
2017-02-04T04:07:19.826Z,992.91
2017-02-04T04:08:33.516Z,992.87
2017-02-04T04:09:46.933Z,992.86
2017-02-04T04:11:00.575Z,992.82
2017-02-04T04:12:14.491Z,992.79
2017-02-04T04:13:28.127Z,992.78
2017-02-04T04:14:41.975Z,992.76
2017-02-04T04:15:55.576Z,992.72
2017-02-04T04:17:09.000Z,992.67
2017-02-04T04:18:23.122Z,992.66
2017-02-04T04:19:36.676Z,992.63
2017-02-04T04:20:50.507Z,992.67
2017-02-04T04:22:03.918Z,992.66
2017-02-04T04:23:18.085Z,992.66
2017-02-04T04:24:31.615Z,992.6
2017-02-04T04:25:45.255Z,992.64
2017-02-04T04:26:58.833Z,992.66
2017-02-04T04:28:13.037Z,992.64
2017-02-04T04:29:26.748Z,992.67
2017-02-04T04:30:40.387Z,992.7
2017-02-04T04:31:54.105Z,992.66
2017-02-04T04:33:07.863Z,992.68
2017-02-04T04:34:21.273Z,992.73
2017-02-04T04:35:35.338Z,992.76
2017-02-04T04:36:49.146Z,992.81
2017-02-04T04:38:02.828Z,992.86
2017-02-04T04:39:16.606Z,992.86
2017-02-04T04:40:30.292Z,992.9
2017-02-04T04:41:43.874Z,992.92
2017-02-04T04:42:57.557Z,992.93
2017-02-04T04:44:11.008Z,992.94
2017-02-04T04:45:24.639Z,992.94
2017-02-04T04:46:38.395Z,992.95
2017-02-04T04:47:52.390Z,992.95
2017-02-04T04:49:06.632Z,992.93
2017-02-04T04:50:20.298Z,992.97
2017-02-04T04:51:33.857Z,993
2017-02-04T04:52:47.529Z,993.01
2017-02-04T04:54:01.029Z,993.05
2017-02-04T04:55:17.056Z,992.99
2017-02-04T04:56:30.517Z,993.04
2017-02-04T04:57:44.115Z,992.97
2017-02-04T04:58:57.678Z,993.03
2017-02-04T05:00:11.334Z,993.02
2017-02-04T05:01:25.144Z,993.08
2017-02-04T05:02:38.839Z,993.1
2017-02-04T05:03:52.364Z,993.09
2017-02-04T05:05:05.962Z,993.07
2017-02-04T05:06:19.566Z,993.14
2017-02-04T05:07:33.147Z,993.14
2017-02-04T05:08:46.905Z,993.18
2017-02-04T05:10:01.616Z,993.19
2017-02-04T05:11:15.318Z,993.19
2017-02-04T05:12:29.032Z,993.17
2017-02-04T05:13:42.498Z,993.16
2017-02-04T05:14:57.179Z,993.11
2017-02-04T05:16:10.684Z,993.11
2017-02-04T05:17:25.051Z,993.09
2017-02-04T05:18:38.506Z,993.06
2017-02-04T05:19:52.190Z,993.07
2017-02-04T05:21:05.757Z,993.06
2017-02-04T05:22:19.585Z,993.06
2017-02-04T05:23:33.688Z,993.03
2017-02-04T05:24:47.595Z,993.02
2017-02-04T05:26:01.538Z,992.97
2017-02-04T05:27:15.216Z,993
2017-02-04T05:28:28.785Z,992.94
2017-02-04T05:29:42.924Z,992.93
2017-02-04T05:30:56.377Z,992.98
2017-02-04T05:32:10.268Z,992.99
2017-02-04T05:33:23.975Z,992.99
2017-02-04T05:34:37.670Z,992.97
2017-02-04T05:35:51.358Z,992.94
2017-02-04T05:37:05.267Z,992.91
2017-02-04T05:38:19.196Z,992.89
2017-02-04T05:39:33.474Z,992.87
2017-02-04T05:40:47.041Z,992.91
2017-02-04T05:42:00.974Z,992.88
2017-02-04T05:43:14.536Z,992.95
2017-02-04T05:44:28.111Z,992.99
2017-02-04T05:45:41.792Z,992.97
2017-02-04T05:46:55.787Z,992.98
2017-02-04T05:48:09.482Z,992.94
2017-02-04T05:49:23.155Z,992.96
2017-02-04T05:50:36.681Z,992.97
2017-02-04T05:52:10.419Z,992.93
2017-02-04T05:53:24.068Z,992.95
2017-02-04T05:54:37.647Z,992.93
2017-02-04T05:55:51.223Z,992.89
2017-02-04T05:57:04.763Z,992.85
2017-02-04T05:58:19.110Z,992.82
2017-02-04T05:59:32.857Z,992.8
2017-02-04T06:00:46.485Z,992.76
2017-02-04T06:02:00.177Z,992.79
2017-02-04T06:03:13.963Z,992.84
2017-02-04T06:04:27.676Z,992.85
2017-02-04T06:05:41.742Z,992.91
2017-02-04T06:06:55.263Z,992.86
2017-02-04T06:08:08.949Z,992.89
2017-02-04T06:09:22.837Z,992.9
2017-02-04T06:10:36.754Z,992.85
2017-02-04T06:11:53.473Z,992.84
2017-02-04T06:13:06.930Z,992.77
2017-02-04T06:14:21.034Z,992.73
2017-02-04T06:15:34.544Z,992.72
2017-02-04T06:16:48.525Z,992.72
2017-02-04T06:18:02.322Z,992.72
2017-02-04T06:19:16.618Z,992.73
2017-02-04T06:20:30.175Z,992.7
2017-02-04T06:21:44.236Z,992.66
2017-02-04T06:22:57.943Z,992.75
2017-02-04T06:24:11.839Z,992.74
2017-02-04T06:25:25.279Z,992.68
2017-02-04T06:26:39.334Z,992.67
2017-02-04T06:27:52.785Z,992.61
2017-02-04T06:29:06.684Z,992.64
2017-02-04T06:30:20.452Z,992.65
2017-02-04T06:31:34.153Z,992.66
2017-02-04T06:32:47.622Z,992.65
2017-02-04T06:34:01.670Z,992.66
2017-02-04T06:35:15.351Z,992.71
2017-02-04T06:36:29.267Z,992.68
2017-02-04T06:37:43.903Z,992.71
2017-02-04T06:38:58.001Z,992.71
2017-02-04T06:40:12.044Z,992.7
2017-02-04T06:41:26.037Z,992.6
2017-02-04T06:42:40.276Z,992.56
2017-02-04T06:43:53.901Z,992.53
2017-02-04T06:45:07.663Z,992.53
2017-02-04T06:46:21.289Z,992.54
2017-02-04T06:47:35.121Z,992.5
2017-02-04T06:48:49.900Z,992.52
2017-02-04T06:50:03.560Z,992.55
2017-02-04T06:51:17.259Z,992.49
2017-02-04T06:52:31.048Z,992.49
2017-02-04T06:53:44.936Z,992.48
2017-02-04T06:54:59.124Z,992.52
2017-02-04T06:56:13.619Z,992.56
2017-02-04T06:57:27.362Z,992.58
2017-02-04T06:58:41.847Z,992.55
2017-02-04T06:59:55.289Z,992.55
2017-02-04T07:01:09.123Z,992.6
2017-02-04T07:02:38.613Z,992.6
2017-02-04T07:03:52.153Z,992.59
2017-02-04T07:05:05.851Z,992.6
2017-02-04T07:06:19.542Z,992.56
2017-02-04T07:07:33.515Z,992.51
2017-02-04T07:08:46.990Z,992.53
2017-02-04T07:10:00.797Z,992.49
2017-02-04T07:11:14.329Z,992.47
2017-02-04T07:12:52.757Z,992.45
2017-02-04T07:14:06.883Z,992.44
2017-02-04T07:15:21.226Z,992.46
2017-02-04T07:16:35.320Z,992.44
2017-02-04T07:17:49.244Z,992.43
2017-02-04T07:19:03.131Z,992.46
2017-02-04T07:20:17.460Z,992.44
2017-02-04T07:21:31.463Z,992.56
2017-02-04T07:24:14.413Z,992.52
2017-02-04T07:25:28.961Z,992.53
2017-02-04T07:26:43.171Z,992.53
2017-02-04T07:27:56.961Z,992.48
2017-02-04T07:29:13.375Z,992.46
2017-02-04T07:30:26.950Z,992.46
2017-02-04T07:31:41.669Z,992.45
2017-02-04T07:32:55.618Z,992.4
2017-02-04T07:34:10.430Z,992.43
2017-02-04T07:35:23.984Z,992.45
2017-02-04T07:36:38.174Z,992.42
2017-02-04T07:37:52.285Z,992.45
2017-02-04T07:39:06.279Z,992.42
2017-02-04T07:40:35.467Z,992.5
2017-02-04T07:41:49.479Z,992.47
2017-02-04T07:43:03.081Z,992.5
2017-02-04T07:44:16.866Z,992.49
2017-02-04T07:45:30.791Z,992.5
2017-02-04T07:46:44.226Z,992.51
2017-02-04T07:47:58.198Z,992.5
2017-02-04T07:49:11.963Z,992.47
2017-02-04T07:50:26.082Z,992.47
2017-02-04T07:51:39.819Z,992.43
2017-02-04T07:52:53.663Z,992.41
2017-02-04T07:54:07.088Z,992.39
2017-02-04T07:55:34.994Z,992.34
2017-02-04T07:56:49.089Z,992.32
2017-02-04T07:58:02.990Z,992.31
2017-02-04T07:59:16.574Z,992.23
2017-02-04T08:00:30.235Z,992.29
2017-02-04T08:01:43.869Z,992.27
2017-02-04T08:02:58.173Z,992.23
2017-02-04T08:04:11.844Z,992.22
2017-02-04T08:05:25.564Z,992.25
2017-02-04T08:06:39.178Z,992.24
2017-02-04T08:07:52.630Z,992.27
2017-02-04T08:09:06.819Z,992.27
2017-02-04T08:10:20.506Z,992.23
2017-02-04T08:11:34.141Z,992.26
2017-02-04T08:12:47.566Z,992.22
2017-02-04T08:14:01.200Z,992.19
2017-02-04T08:15:15.710Z,992.17
2017-02-04T08:16:29.561Z,992.15
2017-02-04T08:17:43.087Z,992.12
2017-02-04T08:18:57.241Z,992.11
2017-02-04T08:20:11.023Z,992.05
2017-02-04T08:21:24.857Z,992.01
2017-02-04T08:22:38.959Z,991.94
2017-02-04T08:23:52.941Z,991.87
2017-02-04T08:25:06.883Z,991.78
2017-02-04T08:26:20.505Z,991.76
2017-02-04T08:27:34.428Z,991.7
2017-02-04T08:28:48.075Z,991.7
2017-02-04T08:30:01.816Z,991.69
2017-02-04T08:31:15.607Z,991.64
2017-02-04T08:32:29.303Z,991.61
2017-02-04T08:33:43.824Z,991.6
2017-02-04T08:34:57.369Z,991.56
2017-02-04T08:36:11.318Z,991.53
2017-02-04T08:37:24.743Z,991.47
2017-02-04T08:38:38.375Z,991.43
2017-02-04T08:39:52.055Z,991.42
2017-02-04T08:41:05.986Z,991.39
2017-02-04T08:42:19.668Z,991.35
2017-02-04T08:43:33.297Z,991.33
2017-02-04T08:44:46.721Z,991.34
2017-02-04T08:46:03.199Z,991.37
2017-02-04T08:47:16.789Z,991.39
2017-02-04T08:48:30.752Z,991.38
2017-02-04T08:49:44.376Z,991.38
2017-02-04T08:51:00.590Z,991.4
2017-02-04T08:52:15.913Z,991.41
2017-02-04T08:53:30.289Z,991.36
2017-02-04T08:54:44.450Z,991.3
2017-02-04T08:55:58.113Z,991.29
2017-02-04T08:57:11.803Z,991.29
2017-02-04T08:58:25.565Z,991.23
2017-02-04T08:59:40.251Z,991.2
2017-02-04T09:00:54.621Z,991.18
2017-02-04T09:02:11.521Z,991.18
2017-02-04T09:03:25.455Z,991.19
2017-02-04T09:04:40.535Z,991.2
2017-02-04T09:05:54.166Z,991.19
2017-02-04T09:07:08.058Z,991.13
2017-02-04T09:08:21.546Z,991.08
2017-02-04T09:09:35.840Z,990.98
2017-02-04T09:10:49.574Z,990.99
2017-02-04T09:12:03.222Z,990.94
2017-02-04T09:13:17.078Z,990.95
2017-02-04T09:14:30.834Z,990.93
2017-02-04T09:15:44.518Z,990.86
2017-02-04T09:16:58.607Z,990.82
2017-02-04T09:18:12.343Z,990.86
2017-02-04T09:19:26.041Z,990.84
2017-02-04T09:20:39.516Z,990.85
2017-02-04T09:21:53.176Z,990.85
2017-02-04T09:23:06.998Z,990.89
2017-02-04T09:24:20.918Z,990.91
2017-02-04T09:25:34.798Z,990.95
2017-02-04T09:27:07.367Z,990.87
2017-02-04T09:28:21.247Z,990.8
2017-02-04T09:29:34.891Z,990.8
2017-02-04T09:30:49.115Z,990.73
2017-02-04T09:32:05.308Z,990.73
2017-02-04T09:33:18.876Z,990.71
2017-02-04T09:34:33.423Z,990.71
2017-02-04T09:35:47.129Z,990.7
2017-02-04T09:37:01.172Z,990.72
2017-02-04T09:38:14.961Z,990.69
2017-02-04T09:39:28.656Z,990.66
2017-02-04T09:40:42.419Z,990.68
2017-02-04T09:41:56.271Z,990.65
2017-02-04T09:43:10.480Z,990.63
2017-02-04T09:44:24.135Z,990.58
2017-02-04T09:45:37.630Z,990.55
2017-02-04T09:47:13.163Z,990.55
2017-02-04T09:48:27.494Z,990.51
2017-02-04T09:49:42.077Z,990.49
2017-02-04T09:50:56.336Z,990.48
2017-02-04T09:52:09.955Z,990.49
2017-02-04T09:53:23.665Z,990.51
2017-02-04T09:54:37.397Z,990.51
2017-02-04T09:56:08.583Z,990.47
2017-02-04T09:57:22.530Z,990.44
2017-02-04T09:58:36.265Z,990.46
2017-02-04T09:59:50.288Z,990.43
2017-02-04T10:01:05.052Z,990.31
2017-02-04T10:02:18.861Z,990.35
2017-02-04T10:03:37.754Z,990.29
2017-02-04T10:04:52.327Z,990.27
2017-02-04T10:06:06.094Z,990.24
2017-02-04T10:07:19.649Z,990.24
2017-02-04T10:08:33.371Z,990.18
2017-02-04T10:09:47.348Z,990.17
2017-02-04T10:11:01.693Z,990.1
2017-02-04T10:12:15.712Z,989.97
2017-02-04T10:13:29.447Z,989.99
2017-02-04T10:14:42.901Z,989.98
2017-02-04T10:16:10.724Z,989.97
2017-02-04T10:17:24.575Z,989.96
2017-02-04T10:18:38.085Z,989.96
2017-02-04T10:19:51.823Z,989.92
2017-02-04T10:21:05.845Z,989.97
2017-02-04T10:22:20.120Z,989.92
2017-02-04T10:23:34.413Z,989.8
2017-02-04T10:24:50.086Z,989.76
2017-02-04T10:26:03.731Z,989.75
2017-02-04T10:27:17.420Z,989.73
2017-02-04T10:28:31.974Z,989.67
2017-02-04T10:29:46.143Z,989.58
2017-02-04T10:30:59.670Z,989.63
2017-02-04T10:32:13.315Z,989.67
2017-02-04T10:33:26.890Z,989.69
2017-02-04T10:34:40.616Z,989.69
2017-02-04T10:36:09.161Z,989.68
2017-02-04T10:37:23.651Z,989.62
2017-02-04T10:38:37.351Z,989.67
2017-02-04T10:39:50.793Z,989.59
2017-02-04T10:41:04.386Z,989.65
2017-02-04T10:42:17.992Z,989.46
2017-02-04T10:43:31.798Z,989.37
2017-02-04T10:44:45.509Z,989.34
2017-02-04T10:46:00.093Z,989.38
2017-02-04T10:47:13.579Z,989.46
2017-02-04T10:48:27.611Z,989.43
2017-02-04T10:49:41.180Z,989.47
2017-02-04T10:50:55.148Z,989.49
2017-02-04T10:52:08.578Z,989.49
2017-02-04T10:53:22.191Z,989.51
2017-02-04T10:54:35.694Z,989.47
2017-02-04T10:55:50.509Z,989.4
2017-02-04T10:57:04.060Z,989.41
2017-02-04T10:58:17.674Z,989.43
2017-02-04T10:59:31.310Z,989.51
2017-02-04T11:00:45.529Z,989.5
2017-02-04T11:01:59.030Z,989.48
2017-02-04T11:03:13.288Z,989.44
2017-02-04T11:04:26.745Z,989.38
2017-02-04T11:05:40.642Z,989.27
2017-02-04T11:06:54.923Z,989.35
2017-02-04T11:08:08.577Z,989.27
2017-02-04T11:09:22.171Z,989.3
2017-02-04T11:10:36.019Z,989.34
2017-02-04T11:11:49.700Z,989.35
2017-02-04T11:13:03.707Z,989.38
2017-02-04T11:14:17.223Z,989.36
2017-02-04T11:15:30.973Z,989.33
2017-02-04T11:16:44.508Z,989.35
2017-02-04T11:17:58.458Z,989.35
2017-02-04T11:19:12.414Z,989.34
2017-02-04T11:20:28.217Z,989.31
2017-02-04T11:21:41.763Z,989.27
2017-02-04T11:22:55.460Z,989.28
2017-02-04T11:24:09.466Z,989.23
2017-02-04T11:26:36.796Z,989.21
2017-02-04T11:27:50.733Z,989.2
2017-02-04T11:29:04.839Z,989.22
2017-02-04T11:30:19.466Z,989.18
2017-02-04T11:31:33.713Z,989.1
2017-02-04T11:32:47.330Z,989.13
2017-02-04T11:34:00.768Z,989.07
2017-02-04T11:35:14.601Z,989.06
2017-02-04T11:36:28.310Z,989.04
2017-02-04T11:40:37.229Z,989.04
2017-02-04T11:41:51.876Z,989.06
2017-02-04T11:43:07.592Z,989
2017-02-04T11:44:23.882Z,989.03
2017-02-04T11:45:38.657Z,989.01
2017-02-04T11:46:53.836Z,989.04
2017-02-04T11:48:09.267Z,989.01
2017-02-04T11:49:23.895Z,989.01
2017-02-04T11:50:38.770Z,988.97
2017-02-04T11:51:54.465Z,988.99
2017-02-04T11:53:10.360Z,989.03
2017-02-04T11:54:24.401Z,988.98
2017-02-04T11:55:39.658Z,988.99
2017-02-04T11:56:53.689Z,989.04
2017-02-04T11:58:07.903Z,989.02
2017-02-04T11:59:23.231Z,989.01
2017-02-04T12:00:37.884Z,988.98
2017-02-04T12:01:53.652Z,988.97
2017-02-04T12:03:09.267Z,988.93
2017-02-04T12:04:23.634Z,988.88
2017-02-04T12:05:38.783Z,988.84
2017-02-04T12:07:13.033Z,988.82
2017-02-04T12:08:27.647Z,988.81
2017-02-04T12:09:44.038Z,988.77
2017-02-04T12:10:58.569Z,988.76
2017-02-04T12:12:13.190Z,988.67
2017-02-04T12:13:27.653Z,988.65
2017-02-04T12:14:42.111Z,988.69
2017-02-04T12:15:56.593Z,988.71
2017-02-04T12:17:11.391Z,988.69
2017-02-04T12:18:26.393Z,988.68
2017-02-04T12:19:41.036Z,988.65
2017-02-04T12:20:55.366Z,988.65
2017-02-04T12:22:09.614Z,988.58
2017-02-04T12:23:23.647Z,988.62
2017-02-04T12:24:38.719Z,988.56
2017-02-04T12:25:52.707Z,988.63
2017-02-04T12:27:07.683Z,988.61
2017-02-04T12:28:22.111Z,988.58
2017-02-04T12:29:37.212Z,988.55
2017-02-04T12:30:51.670Z,988.54
2017-02-04T12:32:06.338Z,988.55
2017-02-04T12:33:20.692Z,988.54
2017-02-04T12:34:35.830Z,988.53
2017-02-04T12:35:50.172Z,988.54
2017-02-04T12:37:06.723Z,988.51
2017-02-04T12:38:23.186Z,988.52
2017-02-04T12:39:40.455Z,988.57
2017-02-04T12:40:56.500Z,988.58
2017-02-04T12:42:11.980Z,988.58
2017-02-04T12:43:26.862Z,988.57
2017-02-04T12:44:41.884Z,988.57
2017-02-04T12:46:10.749Z,988.54
2017-02-04T12:47:25.658Z,988.54
2017-02-04T12:48:41.493Z,988.53
2017-02-04T12:49:55.969Z,988.52
2017-02-04T12:51:27.129Z,988.51
2017-02-04T12:52:41.972Z,988.52
2017-02-04T12:53:56.478Z,988.49
2017-02-04T12:55:11.113Z,988.48
2017-02-04T12:56:26.071Z,988.47
2017-02-04T12:57:41.812Z,988.46
2017-02-04T12:58:56.578Z,988.49
2017-02-04T13:00:11.935Z,988.45
2017-02-04T13:01:26.838Z,988.44
2017-02-04T13:02:42.571Z,988.42
2017-02-04T13:03:57.105Z,988.44
2017-02-04T13:05:11.477Z,988.38
2017-02-04T13:06:26.850Z,988.42
2017-02-04T13:07:41.339Z,988.35
2017-02-04T13:08:56.116Z,988.35
2017-02-04T13:10:10.588Z,988.3
2017-02-04T13:11:26.128Z,988.33
2017-02-04T13:12:42.365Z,988.36
2017-02-04T13:13:57.111Z,988.33
2017-02-04T13:15:12.974Z,988.31
2017-02-04T13:16:27.475Z,988.28
2017-02-04T13:17:42.428Z,988.3
2017-02-04T13:18:56.929Z,988.23
2017-02-04T13:20:11.699Z,988.24
2017-02-04T13:21:27.334Z,988.25
2017-02-04T13:22:44.971Z,988.27
2017-02-04T13:24:00.818Z,988.24
2017-02-04T13:25:17.800Z,988.24
2017-02-04T13:26:33.280Z,988.22
2017-02-04T13:27:47.375Z,988.18
2017-02-04T13:29:02.070Z,988.19
2017-02-04T13:30:17.567Z,988.14
2017-02-04T13:31:32.035Z,988.14
2017-02-04T13:32:48.119Z,988.14
2017-02-04T13:34:03.329Z,988.2
2017-02-04T13:35:17.883Z,988.18
2017-02-04T13:36:33.595Z,988.12
2017-02-04T13:37:49.091Z,988.18
2017-02-04T13:39:03.594Z,988.09
2017-02-04T13:40:17.843Z,988.09
2017-02-04T13:41:32.709Z,988.09
2017-02-04T13:42:53.546Z,988.14
2017-02-04T13:44:08.073Z,988.17
2017-02-04T13:45:22.710Z,988.11
2017-02-04T13:46:36.721Z,988.24
2017-02-04T13:47:51.590Z,988.24
2017-02-04T13:49:07.107Z,988.24
2017-02-04T13:50:21.595Z,988.23
2017-02-04T13:51:37.303Z,988.26
2017-02-04T13:52:52.849Z,988.26
2017-02-04T13:54:07.156Z,988.2
2017-02-04T13:55:22.081Z,988.17
2017-02-04T13:56:36.121Z,988.15
2017-02-04T13:57:54.617Z,988.05
2017-02-04T13:59:08.717Z,988.05
2017-02-04T14:00:24.036Z,988.1
2017-02-04T14:01:38.868Z,988.08
2017-02-04T14:03:01.346Z,987.92
2017-02-04T14:04:17.627Z,987.95
2017-02-04T14:05:33.991Z,987.92
2017-02-04T14:06:48.018Z,987.9
2017-02-04T14:08:03.519Z,987.96
2017-02-04T14:09:18.562Z,987.95
2017-02-04T14:10:34.876Z,988
2017-02-04T14:11:51.512Z,987.99
2017-02-04T14:13:07.677Z,987.95
2017-02-04T14:14:23.618Z,988
2017-02-04T14:15:38.735Z,988.02
2017-02-04T14:16:54.256Z,987.99
2017-02-04T14:18:08.430Z,987.98
2017-02-04T14:19:23.487Z,987.96
2017-02-04T14:20:39.680Z,987.96
2017-02-04T14:21:53.814Z,987.99
2017-02-04T14:23:08.665Z,988
2017-02-04T14:24:23.312Z,987.94
2017-02-04T14:25:37.478Z,987.96
2017-02-04T14:26:52.971Z,987.93
2017-02-04T14:28:07.219Z,987.94
2017-02-04T14:29:22.407Z,987.95
2017-02-04T14:30:38.709Z,988
2017-02-04T14:31:53.312Z,987.96
2017-02-04T14:33:08.257Z,987.96
2017-02-04T14:34:24.291Z,987.97
2017-02-04T14:35:47.710Z,987.87
2017-02-04T14:37:05.606Z,987.89
2017-02-04T14:38:22.180Z,987.87
2017-02-04T14:39:38.369Z,987.81
2017-02-04T14:40:52.558Z,987.95
2017-02-04T14:42:06.913Z,987.95
2017-02-04T14:43:22.471Z,987.88
2017-02-04T14:44:40.979Z,987.99
2017-02-04T14:45:56.215Z,987.98
2017-02-04T14:47:09.779Z,987.94
2017-02-04T14:48:24.128Z,987.97
2017-02-04T14:49:37.589Z,988
2017-02-04T14:50:51.135Z,987.96
2017-02-04T14:52:04.617Z,987.96
2017-02-04T14:53:18.784Z,987.92
2017-02-04T14:54:34.021Z,987.99
2017-02-04T14:55:47.869Z,987.97
2017-02-04T14:57:01.844Z,987.96
2017-02-04T14:58:15.412Z,987.97
2017-02-04T14:59:29.902Z,987.95
2017-02-04T15:00:43.666Z,987.97
2017-02-04T15:01:57.328Z,987.91
2017-02-04T15:03:11.618Z,987.86
2017-02-04T15:04:25.255Z,987.84
2017-02-04T15:05:39.201Z,987.81
2017-02-04T15:06:53.518Z,987.77
2017-02-04T15:08:06.999Z,987.73
2017-02-04T15:09:20.733Z,987.67
2017-02-04T15:10:34.240Z,987.68
2017-02-04T15:11:47.977Z,987.66
2017-02-04T15:13:02.347Z,987.59
2017-02-04T15:14:16.396Z,987.57
2017-02-04T15:15:32.279Z,987.49
2017-02-04T15:16:45.721Z,987.47
2017-02-04T15:17:59.387Z,987.41
2017-02-04T15:19:13.474Z,987.37
2017-02-04T15:20:27.093Z,987.36
2017-02-04T15:21:40.628Z,987.38
2017-02-04T15:22:54.246Z,987.38
2017-02-04T15:24:07.813Z,987.26
2017-02-04T15:25:22.458Z,987.25
2017-02-04T15:26:36.114Z,987.28
2017-02-04T15:27:49.677Z,987.27
2017-02-04T15:29:03.168Z,987.23
2017-02-04T15:30:16.777Z,987.27
2017-02-04T15:31:30.525Z,987.3
2017-02-04T15:32:44.576Z,987.25
2017-02-04T15:33:58.116Z,987.29
2017-02-04T15:35:11.728Z,987.28
2017-02-04T15:36:25.184Z,987.21
2017-02-04T15:37:39.087Z,987.21
2017-02-04T15:38:52.942Z,987.23
2017-02-04T15:40:06.956Z,987.23
2017-02-04T15:41:20.714Z,987.2
2017-02-04T15:42:34.704Z,987.24
2017-02-04T15:43:48.483Z,987.3
2017-02-04T15:45:02.040Z,987.29